createdAt,value
2018-12-28T00:00:08.445Z,21.17
2018-12-28T00:02:36.614Z,19.73
2018-12-28T00:05:04.766Z,19.43
2018-12-28T00:07:32.901Z,19.43
2018-12-28T00:10:01.082Z,17.70
2018-12-28T00:12:31.884Z,19.60
2018-12-28T00:15:00.042Z,20.53
2018-12-28T00:17:30.911Z,22.23
2018-12-28T00:19:59.404Z,21.70
2018-12-28T00:22:27.553Z,21.87
2018-12-28T00:24:55.733Z,21.00
2018-12-28T00:27:24.234Z,20.53
2018-12-28T00:29:52.388Z,21.83
2018-12-28T00:32:20.565Z,21.10
2018-12-28T00:34:49.626Z,23.00
2018-12-28T00:37:17.794Z,19.53
2018-12-28T00:39:45.985Z,20.70
2018-12-28T00:42:14.137Z,20.13
2018-12-28T00:44:42.280Z,19.27
2018-12-28T00:47:10.457Z,19.30
2018-12-28T00:49:38.597Z,19.60
2018-12-28T00:52:06.752Z,21.33
2018-12-28T00:54:35.293Z,19.47
2018-12-28T00:57:03.446Z,20.40
2018-12-28T00:59:31.600Z,20.57
2018-12-28T01:01:59.767Z,20.60
2018-12-28T01:04:27.913Z,19.03
2018-12-28T01:06:56.065Z,20.57
2018-12-28T01:09:24.288Z,19.93
2018-12-28T01:11:52.406Z,22.00
2018-12-28T01:14:20.562Z,21.27
2018-12-28T01:16:48.733Z,20.90
2018-12-28T01:19:16.892Z,21.23
2018-12-28T01:21:45.046Z,23.60
2018-12-28T01:24:13.686Z,20.77
2018-12-28T01:26:41.837Z,21.97
2018-12-28T01:29:09.997Z,21.80
2018-12-28T01:31:38.197Z,22.53
2018-12-28T01:34:06.349Z,21.27
2018-12-28T01:36:34.493Z,21.83
2018-12-28T01:39:03.654Z,24.53
2018-12-28T01:41:31.882Z,24.73
2018-12-28T01:44:00.921Z,24.30
2018-12-28T01:46:29.112Z,24.27
2018-12-28T01:48:57.336Z,25.10
2018-12-28T01:51:25.529Z,24.97
2018-12-28T01:53:53.715Z,22.00
2018-12-28T01:56:21.875Z,24.67
2018-12-28T01:58:50.025Z,24.23
2018-12-28T02:01:18.196Z,23.20
2018-12-28T02:03:46.360Z,23.53
2018-12-28T02:06:14.521Z,23.90
2018-12-28T02:08:42.725Z,23.90
2018-12-28T02:11:10.873Z,23.20
2018-12-28T02:13:39.029Z,23.73
2018-12-28T02:16:07.198Z,22.33
2018-12-28T02:18:35.345Z,24.37
2018-12-28T02:21:03.494Z,23.53
2018-12-28T02:23:31.675Z,27.43
2018-12-28T02:26:02.626Z,24.63
2018-12-28T02:28:30.901Z,24.17
2018-12-28T02:30:59.127Z,24.00
2018-12-28T02:33:27.242Z,24.83
2018-12-28T02:35:55.400Z,24.70
2018-12-28T02:38:23.575Z,23.90
2018-12-28T02:40:51.725Z,22.93
2018-12-28T02:43:19.873Z,23.77
2018-12-28T02:45:48.352Z,23.27
2018-12-28T02:48:16.511Z,24.03
2018-12-28T02:50:44.666Z,24.27
2018-12-28T02:53:12.841Z,24.47
2018-12-28T02:55:44.055Z,24.87
2018-12-28T02:58:11.969Z,25.70
2018-12-28T03:00:40.145Z,26.50
2018-12-28T03:03:08.290Z,24.53
2018-12-28T03:05:36.564Z,25.23
2018-12-28T03:08:04.759Z,24.00
2018-12-28T03:10:32.917Z,25.00
2018-12-28T03:13:01.068Z,27.97
2018-12-28T03:15:29.243Z,24.63
2018-12-28T03:17:57.408Z,25.20
2018-12-28T03:20:25.564Z,25.13
2018-12-28T03:22:54.036Z,27.10
2018-12-28T03:25:22.185Z,24.87
2018-12-28T03:27:50.335Z,26.17
2018-12-28T03:30:18.516Z,25.90
2018-12-28T03:32:46.661Z,26.20
2018-12-28T03:35:15.770Z,26.63
2018-12-28T03:37:43.890Z,26.03
2018-12-28T03:40:12.040Z,25.30
2018-12-28T03:42:41.854Z,26.93
2018-12-28T03:45:10.369Z,25.43
2018-12-28T03:47:38.519Z,27.40
2018-12-28T03:50:06.685Z,26.23
2018-12-28T03:52:34.871Z,26.17
2018-12-28T03:55:03.027Z,28.20
2018-12-28T03:57:32.150Z,27.13
2018-12-28T04:00:00.337Z,27.90
2018-12-28T04:02:28.497Z,28.17
2018-12-28T04:04:56.642Z,28.20
2018-12-28T04:07:24.825Z,28.27
2018-12-28T04:10:00.133Z,28.90
2018-12-28T04:12:22.814Z,28.53
2018-12-28T04:14:51.040Z,29.53
2018-12-28T04:17:19.197Z,29.37
2018-12-28T04:19:47.502Z,29.33
2018-12-28T04:22:15.699Z,28.50
2018-12-28T04:24:43.854Z,28.80
2018-12-28T04:27:12.008Z,29.50
2018-12-28T04:29:40.216Z,30.30
2018-12-28T04:32:08.345Z,28.43
2018-12-28T04:34:36.508Z,28.80
2018-12-28T04:37:04.684Z,29.50
2018-12-28T04:39:32.895Z,29.43
2018-12-28T04:42:01.057Z,29.67
2018-12-28T04:44:29.267Z,28.57
2018-12-28T04:46:57.444Z,29.43
2018-12-28T04:49:25.589Z,31.67
2018-12-28T04:51:53.771Z,31.30
2018-12-28T04:54:23.577Z,30.00
2018-12-28T04:56:51.741Z,29.40
2018-12-28T04:59:19.933Z,28.93
2018-12-28T05:01:49.995Z,30.70
2018-12-28T05:04:19.775Z,30.80
2018-12-28T05:06:49.960Z,32.30
2018-12-28T05:09:19.742Z,30.27
2018-12-28T05:11:58.759Z,32.03
2018-12-28T05:14:28.672Z,30.33
2018-12-28T05:16:58.459Z,31.77
2018-12-28T05:19:27.719Z,30.77
2018-12-28T05:22:12.409Z,29.47
2018-12-28T05:24:42.246Z,31.40
2018-12-28T05:27:18.101Z,32.73
2018-12-28T05:29:54.201Z,30.43
2018-12-28T05:32:22.422Z,31.67
2018-12-28T05:34:50.590Z,31.03
2018-12-28T05:37:18.779Z,32.43
2018-12-28T05:39:46.937Z,32.80
2018-12-28T05:42:15.096Z,30.20
2018-12-28T05:44:43.289Z,31.60
2018-12-28T05:47:11.445Z,32.30
2018-12-28T05:49:39.595Z,31.80
2018-12-28T05:52:07.775Z,33.50
2018-12-28T05:54:35.921Z,31.80
2018-12-28T05:57:04.092Z,33.53
2018-12-28T05:59:32.262Z,31.57
2018-12-28T06:02:00.408Z,33.23
2018-12-28T06:04:28.685Z,32.20
2018-12-28T06:06:56.870Z,30.83
2018-12-28T06:09:25.033Z,30.33
2018-12-28T06:11:53.170Z,32.30
2018-12-28T06:14:21.348Z,32.40
2018-12-28T06:16:49.494Z,30.83
2018-12-28T06:19:17.641Z,31.77
2018-12-28T06:21:45.921Z,32.20
2018-12-28T06:24:14.076Z,32.50
2018-12-28T06:26:42.245Z,31.17
2018-12-28T06:29:11.029Z,31.50
2018-12-28T06:31:39.177Z,33.27
2018-12-28T06:34:07.334Z,30.67
2018-12-28T06:36:35.517Z,32.60
2018-12-28T06:39:05.237Z,32.50
2018-12-28T06:41:33.391Z,32.10
2018-12-28T06:44:01.559Z,32.13
2018-12-28T06:46:29.713Z,32.90
2018-12-28T06:48:57.869Z,32.27
2018-12-28T06:51:26.065Z,32.40
2018-12-28T06:53:55.845Z,31.50
2018-12-28T06:56:28.545Z,33.63
2018-12-28T06:58:58.917Z,31.57
2018-12-28T07:01:31.849Z,32.87
2018-12-28T07:04:19.670Z,32.00
2018-12-28T07:07:04.694Z,32.33
2018-12-28T07:09:49.499Z,31.63
2018-12-28T07:12:37.300Z,32.33
2018-12-28T07:15:09.576Z,38.88
2018-12-28T07:17:55.949Z,31.97
2018-12-28T07:20:42.130Z,31.40
2018-12-28T07:23:25.324Z,31.13
2018-12-28T07:26:10.605Z,32.00
2018-12-28T07:28:57.082Z,31.30
2018-12-28T07:31:32.969Z,30.70
2018-12-28T07:34:02.754Z,33.00
2018-12-28T07:36:47.533Z,29.93
2018-12-28T07:39:20.292Z,30.97
2018-12-28T07:41:59.701Z,31.23
2018-12-28T07:44:29.485Z,31.17
2018-12-28T07:47:08.433Z,31.80
2018-12-28T07:49:41.234Z,31.83
2018-12-28T07:52:19.918Z,31.63
2018-12-28T07:54:49.689Z,32.47
2018-12-28T07:57:22.385Z,30.20
2018-12-28T07:59:52.210Z,32.63
2018-12-28T08:02:21.989Z,31.10
2018-12-28T08:04:51.775Z,31.93
2018-12-28T08:07:24.682Z,32.40
2018-12-28T08:09:57.387Z,32.10
2018-12-28T08:12:45.380Z,31.53
2018-12-28T08:15:15.174Z,30.33
2018-12-28T08:17:44.951Z,30.63
2018-12-28T08:20:20.801Z,29.77
2018-12-28T08:22:53.270Z,29.63
2018-12-28T08:25:38.066Z,30.20
2018-12-28T08:28:07.855Z,28.60
2018-12-28T08:30:46.365Z,28.80
2018-12-28T08:33:16.142Z,30.70
2018-12-28T08:35:54.821Z,28.80
2018-12-28T08:38:30.317Z,29.60
2018-12-28T08:41:12.149Z,29.87
2018-12-28T08:43:44.619Z,29.47
2018-12-28T08:46:20.423Z,30.83
2018-12-28T08:48:56.169Z,28.53
2018-12-28T08:51:25.973Z,29.57
2018-12-28T08:54:01.616Z,28.83
2018-12-28T08:56:46.402Z,27.67
2018-12-28T08:59:34.150Z,29.67
2018-12-28T09:02:09.960Z,30.23
2018-12-28T09:04:48.944Z,29.50
2018-12-28T09:07:27.808Z,28.60
2018-12-28T09:09:57.581Z,29.30
2018-12-28T09:12:27.381Z,29.33
2018-12-28T09:15:03.144Z,29.57
2018-12-28T09:17:48.085Z,29.20
2018-12-28T09:20:24.040Z,31.07
2018-12-28T09:22:56.933Z,30.47
2018-12-28T09:25:26.839Z,29.90
2018-12-28T09:28:05.410Z,29.00
2018-12-28T09:30:51.592Z,29.23
2018-12-28T09:33:39.367Z,31.37
2018-12-28T09:36:24.167Z,28.60
2018-12-28T09:39:10.929Z,29.27
2018-12-28T09:41:43.697Z,29.83
2018-12-28T09:44:16.340Z,29.83
2018-12-28T09:46:49.029Z,31.70
2018-12-28T09:49:21.749Z,30.27
2018-12-28T09:52:00.234Z,30.17
2018-12-28T09:54:33.030Z,38.35
2018-12-28T09:57:08.877Z,32.87
2018-12-28T09:59:45.043Z,29.73
2018-12-28T10:02:14.822Z,32.20
2018-12-28T10:04:47.304Z,31.57
2018-12-28T10:07:17.069Z,29.63
2018-12-28T10:09:46.849Z,31.47
2018-12-28T10:12:19.573Z,31.33
2018-12-28T10:14:49.358Z,32.53
2018-12-28T10:17:17.506Z,30.53
2018-12-28T10:19:45.685Z,32.07
2018-12-28T10:22:13.837Z,30.33
2018-12-28T10:24:42.113Z,30.70
2018-12-28T10:27:10.290Z,32.13
2018-12-28T10:29:38.433Z,32.07
2018-12-28T10:32:06.589Z,31.77
2018-12-28T10:34:34.779Z,31.33
2018-12-28T10:37:02.946Z,32.43
2018-12-28T10:39:31.114Z,30.80
2018-12-28T10:41:59.419Z,29.80
2018-12-28T10:44:27.568Z,33.40
2018-12-28T10:46:55.709Z,32.03
2018-12-28T10:49:23.879Z,31.07
2018-12-28T10:51:52.021Z,31.70
2018-12-28T10:54:20.181Z,31.80
2018-12-28T10:56:48.362Z,32.47
2018-12-28T10:59:16.505Z,31.73
2018-12-28T11:01:44.665Z,32.57
2018-12-28T11:04:12.838Z,33.67
2018-12-28T11:06:40.993Z,34.87
2018-12-28T11:09:09.135Z,35.67
2018-12-28T11:11:37.686Z,34.30
2018-12-28T11:14:05.898Z,32.67
2018-12-28T11:16:34.053Z,34.17
2018-12-28T11:19:02.223Z,35.70
2018-12-28T11:21:31.081Z,34.23
2018-12-28T11:23:59.258Z,33.70
2018-12-28T11:26:27.437Z,34.80
2018-12-28T11:28:55.582Z,34.10
2018-12-28T11:31:23.730Z,34.17
2018-12-28T11:33:51.938Z,34.60
2018-12-28T11:36:20.077Z,34.80
2018-12-28T11:38:49.365Z,35.30
2018-12-28T11:41:17.542Z,35.53
2018-12-28T11:43:45.681Z,35.63
2018-12-28T11:46:13.830Z,35.10
2018-12-28T11:48:42.005Z,35.23
2018-12-28T11:51:10.152Z,36.10
2018-12-28T11:53:38.313Z,37.53
2018-12-28T11:56:06.496Z,35.67
2018-12-28T11:58:34.650Z,37.03
2018-12-28T12:01:04.336Z,37.83
2018-12-28T12:03:32.535Z,37.70
2018-12-28T12:06:00.683Z,37.43
2018-12-28T12:08:28.833Z,38.23
2018-12-28T12:10:57.031Z,38.33
2018-12-28T12:13:25.189Z,36.03
2018-12-28T12:15:53.352Z,36.37
2018-12-28T12:18:21.526Z,37.47
2018-12-28T12:20:51.308Z,36.20
2018-12-28T12:23:19.461Z,34.60
2018-12-28T12:25:47.656Z,36.33
2018-12-28T12:28:18.091Z,35.60
2018-12-28T12:30:45.610Z,34.97
2018-12-28T12:33:14.658Z,36.67
2018-12-28T12:35:42.812Z,36.17
2018-12-28T12:38:12.677Z,34.93
2018-12-28T12:40:40.862Z,34.93
2018-12-28T12:43:09.006Z,35.03
2018-12-28T12:45:37.178Z,32.73
2018-12-28T12:48:05.490Z,34.93
2018-12-28T12:50:33.653Z,34.33
2018-12-28T12:53:01.802Z,35.70
2018-12-28T12:55:29.982Z,33.47
2018-12-28T12:57:58.151Z,34.27
2018-12-28T13:00:26.289Z,34.40
2018-12-28T13:02:54.753Z,34.37
2018-12-28T13:05:22.929Z,35.43
2018-12-28T13:07:51.084Z,35.90
2018-12-28T13:10:20.054Z,36.33
2018-12-28T13:12:50.059Z,35.70
2018-12-28T13:15:18.576Z,37.37
2018-12-28T13:17:47.723Z,36.20
2018-12-28T13:20:17.122Z,36.70
2018-12-28T13:22:45.289Z,36.30
2018-12-28T13:25:13.650Z,35.00
2018-12-28T13:27:41.800Z,34.37
2018-12-28T13:30:09.957Z,36.03
2018-12-28T13:32:38.147Z,34.40
2018-12-28T13:35:06.317Z,37.17
2018-12-28T13:37:34.465Z,35.60
2018-12-28T13:40:02.658Z,35.63
2018-12-28T13:42:30.813Z,36.30
2018-12-28T13:44:58.961Z,36.90
2018-12-28T13:47:27.568Z,36.97
2018-12-28T13:49:55.731Z,35.53
2018-12-28T13:52:23.880Z,36.10
2018-12-28T13:54:54.093Z,34.93
2018-12-28T13:57:22.256Z,36.70
2018-12-28T13:59:50.405Z,37.97
2018-12-28T14:02:18.596Z,34.93
2018-12-28T14:04:46.741Z,36.10
2018-12-28T14:07:15.837Z,35.90
2018-12-28T14:09:45.466Z,37.60
2018-12-28T14:12:13.618Z,35.93
2018-12-28T14:14:44.550Z,36.93
2018-12-28T14:17:12.738Z,36.90
2018-12-28T14:19:42.144Z,35.80
2018-12-28T14:22:10.299Z,36.20
2018-12-28T14:24:38.494Z,36.97
2018-12-28T14:27:08.286Z,38.40
2018-12-28T14:29:36.439Z,38.10
2018-12-28T14:32:04.621Z,37.67
2018-12-28T14:34:32.777Z,36.53
2018-12-28T14:37:00.935Z,36.63
2018-12-28T14:39:39.617Z,38.17
2018-12-28T14:42:07.764Z,36.73
2018-12-28T14:44:35.906Z,38.10
2018-12-28T14:47:06.222Z,37.50
2018-12-28T14:49:34.383Z,37.93
2018-12-28T14:52:02.532Z,36.77
2018-12-28T14:54:30.721Z,36.70
2018-12-28T14:56:58.869Z,36.87
2018-12-28T14:59:27.018Z,37.60
2018-12-28T15:01:55.208Z,38.60
2018-12-28T15:04:23.350Z,39.43
2018-12-28T15:06:51.518Z,38.27
2018-12-28T15:09:19.695Z,36.97
2018-12-28T15:11:47.865Z,37.97
2018-12-28T15:14:17.648Z,37.37
2018-12-28T15:16:45.914Z,36.43
2018-12-28T15:19:14.067Z,36.70
2018-12-28T15:21:42.205Z,36.43
2018-12-28T15:24:10.391Z,37.43
2018-12-28T15:26:38.537Z,37.73
2018-12-28T15:29:07.258Z,38.37
2018-12-28T15:31:35.449Z,38.43
2018-12-28T15:34:03.609Z,40.60
2018-12-28T15:36:34.681Z,38.20
2018-12-28T15:39:05.379Z,38.17
2018-12-28T15:41:33.483Z,39.30
2018-12-28T15:44:01.630Z,39.63
2018-12-28T15:46:29.954Z,41.40
2018-12-28T15:48:58.137Z,41.47
2018-12-28T15:51:26.282Z,42.27
2018-12-28T15:53:54.457Z,42.37
2018-12-28T15:56:22.594Z,41.33
2018-12-28T15:58:50.745Z,41.03
2018-12-28T16:01:18.959Z,42.67
2018-12-28T16:03:47.118Z,42.63
2018-12-28T16:06:15.268Z,41.90
2018-12-28T16:08:44.181Z,42.47
2018-12-28T16:11:12.462Z,41.37
2018-12-28T16:13:40.609Z,43.23
2018-12-28T16:16:08.773Z,42.03
2018-12-28T16:18:36.938Z,41.40
2018-12-28T16:21:05.107Z,42.03
2018-12-28T16:23:33.294Z,41.17
2018-12-28T16:26:01.442Z,41.50
2018-12-28T16:28:29.594Z,39.80
2018-12-28T16:30:57.778Z,43.77
2018-12-28T16:33:25.949Z,43.53
2018-12-28T16:35:54.108Z,42.07
2018-12-28T16:38:22.289Z,43.67
2018-12-28T16:40:50.441Z,45.10
2018-12-28T16:43:18.605Z,46.20
2018-12-28T16:45:47.903Z,49.13
2018-12-28T16:48:16.446Z,49.87
2018-12-28T16:50:44.603Z,51.87
2018-12-28T16:53:12.789Z,54.30
2018-12-28T16:55:40.937Z,54.63
2018-12-28T16:58:10.753Z,56.80
2018-12-28T17:00:39.062Z,56.77
2018-12-28T17:03:07.233Z,51.00
2018-12-28T17:05:35.397Z,53.93
2018-12-28T17:08:03.596Z,51.60
2018-12-28T17:10:31.737Z,48.60
2018-12-28T17:13:02.645Z,45.47
2018-12-28T17:15:30.829Z,46.43
2018-12-28T17:17:58.991Z,42.20
2018-12-28T17:20:27.142Z,43.67
2018-12-28T17:22:55.308Z,42.83
2018-12-28T17:25:23.469Z,41.23
2018-12-28T17:27:51.631Z,43.80
2018-12-28T17:30:19.817Z,42.00
2018-12-28T17:32:47.972Z,40.47
2018-12-28T17:35:16.118Z,40.93
2018-12-28T17:37:44.317Z,43.67
2018-12-28T17:40:12.470Z,43.27
2018-12-28T17:42:40.649Z,43.60
2018-12-28T17:45:09.092Z,42.07
2018-12-28T17:47:37.242Z,43.53
2018-12-28T17:50:06.385Z,43.37
2018-12-28T17:52:34.563Z,44.83
2018-12-28T17:55:02.721Z,45.03
2018-12-28T17:57:30.872Z,44.80
2018-12-28T17:59:59.061Z,43.30
2018-12-28T18:02:27.205Z,41.90
2018-12-28T18:04:55.357Z,43.87
2018-12-28T18:07:23.530Z,43.30
2018-12-28T18:09:51.678Z,45.03
2018-12-28T18:12:19.827Z,44.50
2018-12-28T18:14:48.014Z,42.93
2018-12-28T18:17:16.167Z,43.10
2018-12-28T18:19:44.309Z,43.17
2018-12-28T18:22:12.488Z,43.83
2018-12-28T18:24:40.760Z,41.67
2018-12-28T18:27:08.915Z,45.03
2018-12-28T18:29:37.098Z,42.97
2018-12-28T18:32:06.549Z,43.03
2018-12-28T18:34:35.781Z,43.93
2018-12-28T18:37:04.037Z,42.87
2018-12-28T18:39:32.610Z,43.97
2018-12-28T18:42:00.776Z,43.27
2018-12-28T18:44:28.962Z,43.67
2018-12-28T18:46:57.119Z,43.20
2018-12-28T18:49:26.495Z,45.33
2018-12-28T18:51:56.998Z,43.70
2018-12-28T18:54:25.166Z,42.10
2018-12-28T18:56:53.302Z,42.60
2018-12-28T18:59:21.483Z,42.90
2018-12-28T19:01:49.625Z,44.80
2018-12-28T19:04:17.764Z,45.17
2018-12-28T19:06:45.957Z,45.63
2018-12-28T19:09:14.114Z,43.60
2018-12-28T19:11:42.256Z,46.03
2018-12-28T19:14:10.429Z,42.80
2018-12-28T19:16:38.577Z,43.73
2018-12-28T19:19:07.949Z,42.67
2018-12-28T19:21:36.100Z,41.47
2018-12-28T19:24:05.838Z,41.10
2018-12-28T19:26:33.990Z,41.13
2018-12-28T19:29:02.171Z,41.03
2018-12-28T19:31:30.320Z,39.07
2018-12-28T19:33:58.465Z,40.67
2018-12-28T19:36:26.702Z,41.13
2018-12-28T19:38:54.797Z,41.70
2018-12-28T19:41:22.942Z,42.30
2018-12-28T19:43:51.135Z,40.40
2018-12-28T19:46:19.281Z,40.27
2018-12-28T19:48:47.426Z,40.97
2018-12-28T19:51:15.624Z,41.87
2018-12-28T19:53:43.775Z,42.17
2018-12-28T19:56:11.917Z,38.60
2018-12-28T19:58:59.542Z,38.27
2018-12-28T20:01:47.119Z,37.67
2018-12-28T21:27:35.804Z,38.83
2018-12-28T21:30:05.132Z,39.77
2018-12-28T21:32:33.277Z,37.73
2018-12-28T21:35:04.130Z,37.67
2018-12-28T21:37:32.278Z,38.23
2018-12-28T21:40:00.417Z,37.17
2018-12-28T21:42:28.933Z,36.53
2018-12-28T21:44:57.080Z,37.67
2018-12-28T21:47:25.230Z,38.63
2018-12-28T21:49:53.400Z,36.37
2018-12-28T21:52:21.552Z,37.97
2018-12-28T21:54:49.699Z,35.90
2018-12-28T21:57:20.119Z,37.23
2018-12-28T21:59:48.263Z,37.80
2018-12-28T22:02:17.479Z,38.07
2018-12-28T22:04:45.665Z,37.23
2018-12-28T22:07:13.809Z,40.03
2018-12-28T22:09:42.089Z,37.87
2018-12-28T22:12:10.267Z,38.27
2018-12-28T22:14:38.423Z,38.03
2018-12-28T22:17:06.573Z,36.10
2018-12-28T22:19:34.753Z,35.27
2018-12-28T22:22:02.906Z,36.40
2018-12-28T22:24:31.073Z,38.37
2018-12-28T22:26:59.267Z,37.07
2018-12-28T22:29:27.409Z,35.17
2018-12-28T22:31:55.549Z,36.97
2018-12-28T22:34:23.748Z,35.57
2018-12-28T22:36:52.021Z,34.73
2018-12-28T22:39:20.517Z,35.37
2018-12-28T22:41:50.067Z,35.10
2018-12-28T22:44:18.228Z,35.97
2018-12-28T22:46:46.373Z,37.87
2018-12-28T22:49:14.554Z,37.03
2018-12-28T22:51:42.709Z,35.83
2018-12-28T22:54:10.862Z,35.70
2018-12-28T22:56:39.034Z,34.47
2018-12-28T22:59:09.233Z,36.07
2018-12-28T23:01:37.371Z,35.63
2018-12-28T23:04:06.218Z,35.63
2018-12-28T23:06:34.371Z,35.73
2018-12-28T23:09:02.527Z,34.23
2018-12-28T23:11:30.698Z,36.10
2018-12-28T23:13:58.861Z,36.27
2018-12-28T23:16:27.001Z,32.93
2018-12-28T23:18:55.182Z,34.17
2018-12-28T23:21:23.328Z,35.43
2018-12-28T23:23:51.497Z,34.37
2018-12-28T23:26:20.234Z,34.80
2018-12-28T23:28:48.385Z,33.80
2018-12-28T23:31:16.528Z,33.40
2018-12-28T23:33:44.717Z,34.47
2018-12-28T23:36:14.539Z,33.20
2018-12-28T23:38:43.972Z,34.57
2018-12-28T23:41:13.317Z,34.23
2018-12-28T23:43:41.479Z,33.33
2018-12-28T23:46:09.637Z,33.50
2018-12-28T23:48:37.827Z,32.30
2018-12-28T23:51:05.973Z,31.10
2018-12-28T23:53:34.121Z,31.73
2018-12-28T23:56:02.618Z,33.33
2018-12-28T23:58:30.762Z,30.23
